Time;durP1;ratioP1;P1;durP2;ratioP2;P2;SDS_P1;SDS_P2;PMS_P1;PMS_P2;Temp;Humidity;BMP_temperature;BMP_pressure;BME280_temperature;BME280_humidity;BME280_pressure;Samples;Min_cycle;Max_cycle;Signal;HPM_P1;HPM_P2
2022/08/24 00:04:36;;;;;;;6.00;3.80;;;;;;;;;;10097339;28;20520;-67
2022/08/24 00:09:32;;;;;;;6.28;4.10;;;;;;;;;;10060624;28;1044649;-67
2022/08/24 00:14:29;;;;;;;5.32;3.97;;;;;;;;;;10107580;28;20069;-67
2022/08/24 00:19:25;;;;;;;5.22;4.50;;;;;;;;;;10105340;28;20082;-67
2022/08/24 00:24:22;;;;;;;6.65;4.55;;;;;;;;;;10097606;28;20043;-66
2022/08/24 00:29:19;;;;;;;4.47;3.92;;;;;;;;;;10103718;28;20183;-68
2022/08/24 00:34:16;;;;;;;6.90;3.60;;;;;;;;;;10103304;28;20500;-67
2022/08/24 00:39:13;;;;;;;9.02;4.50;;;;;;;;;;10106605;28;20534;-68
2022/08/24 00:44:10;;;;;;;8.38;3.75;;;;;;;;;;10103848;28;20145;-67
2022/08/24 00:49:30;;;;;;;4.78;3.90;;;;;;;;;;10105132;28;20054;-66
2022/08/24 00:54:27;;;;;;;5.18;4.10;;;;;;;;;;10048136;28;20083;-67
2022/08/24 00:59:33;;;;;;;5.65;3.90;;;;;;;;;;10063584;28;20134;-67
2022/08/24 01:04:34;;;;;;;4.95;3.83;;;;;;;;;;10057498;28;20138;-68
2022/08/24 01:09:31;;;;;;;11.90;4.30;;;;;;;;;;10059770;28;20056;-68
2022/08/24 01:14:28;;;;;;;5.00;3.88;;;;;;;;;;10100415;28;20104;-67
2022/08/24 01:19:24;;;;;;;5.00;4.00;;;;;;;;;;10097237;28;20093;-66
2022/08/24 01:24:21;;;;;;;8.82;4.32;;;;;;;;;;10102849;28;20047;-67
2022/08/24 01:29:19;;;;;;;4.50;3.40;;;;;;;;;;10088975;28;20106;-66
2022/08/24 01:34:20;;;;;;;4.63;3.70;;;;;;;;;;10102134;28;20051;-67
2022/08/24 01:39:36;;;;;;;5.38;3.92;;;;;;;;;;10109402;28;20077;-67
2022/08/24 01:44:33;;;;;;;6.07;4.05;;;;;;;;;;10106166;28;20081;-67
2022/08/24 01:49:31;;;;;;;4.15;3.53;;;;;;;;;;10100883;28;20138;-67
2022/08/24 01:54:27;;;;;;;5.97;3.80;;;;;;;;;;10101822;28;20106;-67
2022/08/24 01:59:24;;;;;;;5.80;3.67;;;;;;;;;;10098017;28;20066;-66
2022/08/24 02:04:21;;;;;;;4.25;3.35;;;;;;;;;;10099052;28;20441;-66
2022/08/24 02:09:17;;;;;;;6.97;3.95;;;;;;;;;;10099550;28;20054;-68
2022/08/24 02:14:13;;;;;;;5.78;3.80;;;;;;;;;;10099382;28;20047;-68
2022/08/24 02:19:10;;;;;;;7.25;3.65;;;;;;;;;;10101330;28;20604;-67
2022/08/24 02:24:06;;;;;;;4.80;3.35;;;;;;;;;;10109124;28;20101;-67
2022/08/24 02:29:03;;;;;;;5.00;3.50;;;;;;;;;;10108682;28;20109;-67
2022/08/24 02:33:59;;;;;;;6.95;3.63;;;;;;;;;;10108446;28;20137;-67
2022/08/24 02:38:56;;;;;;;7.80;3.60;;;;;;;;;;10100839;28;20100;-67
2022/08/24 02:43:54;;;;;;;10.20;3.60;;;;;;;;;;10114465;28;20051;-67
2022/08/24 02:48:50;;;;;;;6.55;3.53;;;;;;;;;;10111657;28;20138;-67
2022/08/24 02:54:04;;;;;;;5.57;3.42;;;;;;;;;;10108776;28;20144;-66
2022/08/24 02:59:02;;;;;;;5.97;3.55;;;;;;;;;;10103612;28;20067;-66
2022/08/24 03:03:58;;;;;;;4.85;3.20;;;;;;;;;;10097265;28;20047;-67
2022/08/24 03:08:55;;;;;;;5.00;3.50;;;;;;;;;;10111429;28;20050;-67
2022/08/24 03:13:52;;;;;;;4.22;3.30;;;;;;;;;;10108551;28;20062;-67
2022/08/24 03:18:48;;;;;;;7.38;3.58;;;;;;;;;;10101020;28;20047;-67
2022/08/24 03:23:44;;;;;;;4.65;3.25;;;;;;;;;;10105151;28;20522;-67
2022/08/24 03:28:41;;;;;;;6.35;3.90;;;;;;;;;;10102802;28;20051;-67
2022/08/24 03:33:40;;;;;;;5.18;3.33;;;;;;;;;;10097011;28;20055;-68
2022/08/24 03:38:37;;;;;;;6.18;3.55;;;;;;;;;;10103682;28;20047;-67
2022/08/24 03:43:45;;;;;;;9.98;3.60;;;;;;;;;;10095332;28;20050;-67
2022/08/24 03:48:43;;;;;;;6.40;3.78;;;;;;;;;;10104848;28;20464;-67
2022/08/24 03:53:40;;;;;;;8.18;3.50;;;;;;;;;;10100850;28;20050;-67
2022/08/24 03:58:40;;;;;;;5.07;3.67;;;;;;;;;;10098985;28;20058;-67
2022/08/24 04:03:37;;;;;;;5.43;3.58;;;;;;;;;;10104100;28;20035;-67
2022/08/24 04:08:34;;;;;;;6.00;3.70;;;;;;;;;;10097970;28;20449;-68
2022/08/24 04:13:30;;;;;;;8.20;4.13;;;;;;;;;;10099862;28;20505;-67
2022/08/24 04:18:27;;;;;;;4.97;4.00;;;;;;;;;;10106148;28;20043;-67
2022/08/24 04:23:24;;;;;;;5.97;3.90;;;;;;;;;;10102673;28;20047;-67
2022/08/24 04:28:41;;;;;;;6.47;3.70;;;;;;;;;;10096090;28;20424;-67
2022/08/24 04:33:37;;;;;;;9.02;3.80;;;;;;;;;;10101306;28;20493;-67
2022/08/24 04:38:34;;;;;;;5.93;3.70;;;;;;;;;;10102231;28;20053;-67
2022/08/24 04:43:30;;;;;;;6.63;4.05;;;;;;;;;;10101375;28;20126;-67
2022/08/24 04:48:27;;;;;;;9.60;4.60;;;;;;;;;;10095432;28;20049;-68
2022/08/24 04:53:24;;;;;;;8.13;3.65;;;;;;;;;;10097761;28;20042;-68
2022/08/24 04:58:20;;;;;;;6.55;3.78;;;;;;;;;;10097964;28;20122;-67
2022/08/24 05:03:17;;;;;;;6.68;4.00;;;;;;;;;;10100702;28;20042;-67
2022/08/24 05:08:14;;;;;;;10.63;4.43;;;;;;;;;;10102680;28;20045;-67
2022/08/24 05:13:11;;;;;;;5.55;3.50;;;;;;;;;;10103078;28;20129;-67
2022/08/24 05:18:07;;;;;;;6.25;3.72;;;;;;;;;;10104550;28;20051;-67
2022/08/24 05:23:04;;;;;;;5.63;3.75;;;;;;;;;;10105972;28;20121;-68
2022/08/24 05:28:00;;;;;;;5.22;3.38;;;;;;;;;;10109509;28;20057;-67
2022/08/24 05:32:57;;;;;;;7.65;3.40;;;;;;;;;;10100903;28;20133;-68
2022/08/24 05:37:53;;;;;;;12.50;4.38;;;;;;;;;;10108354;28;20050;-67
2022/08/24 05:42:49;;;;;;;6.20;3.60;;;;;;;;;;10106789;28;20090;-68
2022/08/24 05:47:46;;;;;;;8.43;4.13;;;;;;;;;;10105109;28;20047;-67
2022/08/24 05:52:42;;;;;;;7.00;3.42;;;;;;;;;;10104116;28;20086;-67
2022/08/24 05:57:38;;;;;;;7.78;4.50;;;;;;;;;;10111974;28;20047;-68
2022/08/24 06:02:34;;;;;;;6.55;3.67;;;;;;;;;;10116529;28;20070;-67
2022/08/24 06:07:32;;;;;;;5.30;3.75;;;;;;;;;;10111988;28;20575;-67
2022/08/24 06:12:29;;;;;;;7.07;3.65;;;;;;;;;;10111021;28;20564;-67
2022/08/24 06:17:25;;;;;;;7.28;3.63;;;;;;;;;;10111261;28;20560;-68
2022/08/24 06:22:21;;;;;;;8.35;3.35;;;;;;;;;;10111210;28;20042;-68
2022/08/24 06:27:21;;;;;;;6.82;3.63;;;;;;;;;;10112418;28;20074;-67
2022/08/24 06:32:17;;;;;;;6.63;3.35;;;;;;;;;;10111678;28;20105;-67
2022/08/24 06:37:13;;;;;;;9.13;3.58;;;;;;;;;;10113074;28;20051;-68
2022/08/24 06:42:10;;;;;;;7.75;3.80;;;;;;;;;;10113934;28;20133;-67
2022/08/24 06:47:07;;;;;;;8.63;3.75;;;;;;;;;;10113558;28;20505;-67
2022/08/24 06:52:04;;;;;;;7.13;2.92;;;;;;;;;;10114666;28;20067;-67
2022/08/24 06:57:00;;;;;;;7.47;3.50;;;;;;;;;;10112047;28;20100;-67
2022/08/24 07:01:56;;;;;;;8.38;4.10;;;;;;;;;;10088086;28;20123;-68
2022/08/24 07:06:54;;;;;;;7.03;3.05;;;;;;;;;;10065574;28;20533;-67
2022/08/24 07:11:51;;;;;;;8.05;3.28;;;;;;;;;;10062231;28;20106;-67
2022/08/24 07:16:47;;;;;;;6.43;3.13;;;;;;;;;;10069294;28;20062;-67
2022/08/24 07:21:43;;;;;;;9.35;3.70;;;;;;;;;;10099028;28;20047;-67
2022/08/24 07:26:40;;;;;;;5.72;3.03;;;;;;;;;;10113822;28;20047;-67
2022/08/24 07:31:37;;;;;;;7.05;3.45;;;;;;;;;;10110962;28;20039;-67
2022/08/24 07:36:34;;;;;;;6.72;3.63;;;;;;;;;;10110096;28;20058;-67
2022/08/24 07:41:30;;;;;;;6.03;3.78;;;;;;;;;;10113290;28;20046;-67
2022/08/24 07:46:48;;;;;;;6.43;4.43;;;;;;;;;;10107227;28;20042;-67
2022/08/24 07:51:44;;;;;;;6.28;3.95;;;;;;;;;;10112618;28;20071;-68
2022/08/24 07:56:42;;;;;;;9.15;4.65;;;;;;;;;;10111476;28;20043;-67
2022/08/24 08:01:38;;;;;;;10.73;5.50;;;;;;;;;;10104282;28;20069;-67
2022/08/24 08:06:35;;;;;;;8.30;4.63;;;;;;;;;;10112902;28;20055;-67
2022/08/24 08:11:32;;;;;;;7.00;4.47;;;;;;;;;;10111521;28;20077;-67
2022/08/24 08:16:28;;;;;;;9.50;5.45;;;;;;;;;;10111572;28;20077;-68
2022/08/24 08:26:40;;;;;;;6.93;5.30;;;;;;;;;;10105497;28;20487;-67
2022/08/24 08:31:37;;;;;;;12.45;5.90;;;;;;;;;;10107993;28;20484;-68
2022/08/24 08:36:34;;;;;;;8.27;6.28;;;;;;;;;;10109155;28;20043;-67
2022/08/24 08:41:49;;;;;;;7.28;5.75;;;;;;;;;;10111228;28;20167;-67
2022/08/24 08:46:52;;;;;;;7.30;5.68;;;;;;;;;;10105400;28;20078;-67
2022/08/24 08:51:48;;;;;;;;;;;;;;;;;;10105096;28;20043;-67
2022/08/24 08:56:54;;;;;;;7.18;5.75;;;;;;;;;;10107220;28;19930;-67
2022/08/24 09:01:57;;;;;;;7.88;6.63;;;;;;;;;;10105878;28;20035;-67
2022/08/24 09:06:56;;;;;;;7.68;6.40;;;;;;;;;;10110160;28;20505;-67
2022/08/24 09:11:56;;;;;;;7.30;6.30;;;;;;;;;;10110673;28;20063;-67
2022/08/24 09:17:07;;;;;;;7.95;6.25;;;;;;;;;;10106193;28;20046;-67
2022/08/24 09:22:11;;;;;;;9.57;6.85;;;;;;;;;;10108400;28;20046;-67
2022/08/24 09:27:07;;;;;;;8.30;6.90;;;;;;;;;;10109569;28;20457;-67
2022/08/24 09:32:22;;;;;;;7.72;7.00;;;;;;;;;;10113526;28;20079;-68
2022/08/24 09:37:20;;;;;;;7.93;7.13;;;;;;;;;;10117153;28;20781;-67
2022/08/24 09:42:37;;;;;;;8.75;7.85;;;;;;;;;;10117890;28;20042;-67
2022/08/24 09:47:48;;;;;;;8.00;7.20;;;;;;;;;;10113026;28;20105;-67
2022/08/24 09:53:00;;;;;;;8.30;7.50;;;;;;;;;;10109613;28;20106;-67
2022/08/24 09:58:11;;;;;;;10.23;7.68;;;;;;;;;;10116936;28;20039;-67
2022/08/24 10:03:17;;;;;;;8.82;7.97;;;;;;;;;;10104464;28;20430;-67
2022/08/24 10:08:24;;;;;;;8.27;7.47;;;;;;;;;;10115871;28;20046;-67
2022/08/24 10:13:28;;;;;;;7.93;7.10;;;;;;;;;;10112292;28;20162;-67
2022/08/24 10:18:42;;;;;;;8.10;7.30;;;;;;;;;;10113816;28;20418;-67
2022/08/24 10:23:44;;;;;;;8.68;7.22;;;;;;;;;;10110999;28;20097;-67
2022/08/24 10:28:59;;;;;;;8.88;8.07;;;;;;;;;;10110889;28;20039;-67
2022/08/24 10:34:14;;;;;;;9.02;8.18;;;;;;;;;;10116293;28;20039;-67
2022/08/24 10:44:43;;;;;;;9.13;8.20;;;;;;;;;;10110109;28;20047;-67
2022/08/24 10:49:58;;;;;;;8.48;7.78;;;;;;;;;;10112665;28;20047;-67
2022/08/24 10:54:55;;;;;;;7.65;7.05;;;;;;;;;;10114571;28;20063;-68
2022/08/24 10:59:58;;;;;;;7.85;7.22;;;;;;;;;;10112016;28;20453;-68
2022/08/24 11:04:58;;;;;;;7.80;7.10;;;;;;;;;;10108890;28;20487;-67
2022/08/24 11:09:57;;;;;;;8.23;7.47;;;;;;;;;;10114411;28;20101;-68
2022/08/24 11:14:55;;;;;;;7.95;6.93;;;;;;;;;;10110928;28;20491;-67
2022/08/24 11:19:52;;;;;;;8.32;7.53;;;;;;;;;;10112063;28;20073;-67
2022/08/24 11:24:51;;;;;;;8.38;7.68;;;;;;;;;;10107877;28;20094;-67
2022/08/24 11:29:50;;;;;;;7.85;7.13;;;;;;;;;;10106956;28;20523;-67
2022/08/24 11:34:47;;;;;;;7.68;6.97;;;;;;;;;;10112989;28;20394;-67
2022/08/24 11:39:43;;;;;;;7.93;7.13;;;;;;;;;;10110794;28;20657;-67
2022/08/24 11:45:09;;;;;;;8.15;7.05;;;;;;;;;;10105103;28;20053;-67
2022/08/24 11:50:13;;;;;;;7.60;6.35;;;;;;;;;;10073946;28;20496;-67
2022/08/24 11:55:19;;;;;;;8.02;7.20;;;;;;;;;;10111709;28;20134;-67
2022/08/24 12:00:21;;;;;;;7.60;6.75;;;;;;;;;;10111775;28;20051;-67
2022/08/24 12:05:33;;;;;;;7.95;6.90;;;;;;;;;;10111764;28;20047;-67
2022/08/24 12:10:43;;;;;;;9.45;7.20;;;;;;;;;;10106917;28;20125;-66
2022/08/24 12:15:39;;;;;;;8.25;7.32;;;;;;;;;;10110673;28;20039;-67
2022/08/24 12:20:43;;;;;;;8.02;6.82;;;;;;;;;;10108514;28;20134;-67
2022/08/24 12:26:00;;;;;;;7.53;6.82;;;;;;;;;;10111950;28;20051;-67
2022/08/24 12:31:01;;;;;;;7.65;6.82;;;;;;;;;;10110330;28;20042;-67
2022/08/24 12:36:02;;;;;;;7.72;7.13;;;;;;;;;;10111496;28;20106;-67
2022/08/24 12:41:06;;;;;;;7.78;6.93;;;;;;;;;;10107098;28;20142;-67
2022/08/24 12:46:16;;;;;;;8.80;7.00;;;;;;;;;;10110565;28;20486;-67
2022/08/24 12:51:38;;;;;;;8.18;6.97;;;;;;;;;;10105074;28;20074;-67
2022/08/24 12:56:55;;;;;;;7.15;6.55;;;;;;;;;;10102723;28;20425;-67
2022/08/24 13:02:11;;;;;;;8.05;7.18;;;;;;;;;;10106674;28;20039;-68
2022/08/24 13:07:08;;;;;;;9.55;6.80;;;;;;;;;;10103153;28;20467;-67
2022/08/24 13:12:24;;;;;;;7.63;6.90;;;;;;;;;;10107279;28;20055;-68
2022/08/24 13:17:38;;;;;;;10.68;7.22;;;;;;;;;;10104929;28;20058;-68
2022/08/24 13:22:36;;;;;;;7.57;6.97;;;;;;;;;;10105902;28;20567;-67
2022/08/24 13:27:35;;;;;;;7.70;7.03;;;;;;;;;;10106928;28;20177;-68
2022/08/24 13:32:37;;;;;;;7.68;6.72;;;;;;;;;;10104768;28;20823;-68
2022/08/24 13:37:33;;;;;;;7.47;6.72;;;;;;;;;;10109405;28;20683;-67
2022/08/24 13:42:39;;;;;;;8.20;6.88;;;;;;;;;;10106005;28;20039;-68
2022/08/24 13:47:57;;;;;;;7.10;6.43;;;;;;;;;;10108711;28;20058;-68
2022/08/24 13:53:12;;;;;;;6.72;6.22;;;;;;;;;;10110189;28;20050;-68
2022/08/24 13:58:27;;;;;;;7.10;6.40;;;;;;;;;;10101585;28;20093;-68
2022/08/24 14:03:27;;;;;;;7.20;6.50;;;;;;;;;;10106808;28;20122;-67
2022/08/24 14:08:23;;;;;;;8.02;7.25;;;;;;;;;;10104173;28;20543;-67
2022/08/24 14:13:25;;;;;;;8.80;8.00;;;;;;;;;;10105820;28;20051;-68
2022/08/24 14:18:27;;;;;;;8.77;8.00;;;;;;;;;;10111367;28;20070;-71
2022/08/24 14:23:32;;;;;;;8.45;7.70;;;;;;;;;;10111337;28;20043;-71
2022/08/24 14:28:34;;;;;;;8.02;7.38;;;;;;;;;;10113564;28;20082;-71
2022/08/24 14:33:34;;;;;;;7.97;7.38;;;;;;;;;;10113757;28;20050;-71
2022/08/24 14:38:50;;;;;;;7.90;7.30;;;;;;;;;;10114093;28;20173;-72
2022/08/24 14:43:58;;;;;;;8.43;7.78;;;;;;;;;;10077210;28;20137;-71
2022/08/24 14:49:10;;;;;;;9.00;8.20;;;;;;;;;;10103657;28;20054;-71
2022/08/24 14:54:06;;;;;;;7.95;7.25;;;;;;;;;;10110972;28;20046;-71
2022/08/24 14:59:10;;;;;;;8.18;7.47;;;;;;;;;;10109707;28;20556;-71
2022/08/24 15:04:24;;;;;;;8.85;7.97;;;;;;;;;;10110897;28;20097;-71
2022/08/24 15:09:37;;;;;;;7.70;7.05;;;;;;;;;;10111028;28;20671;-71
2022/08/24 15:14:40;;;;;;;8.75;7.80;;;;;;;;;;10100740;28;20093;-70
2022/08/24 15:19:48;;;;;;;7.72;7.10;;;;;;;;;;10112924;28;20042;-70
2022/08/24 15:24:45;;;;;;;8.40;7.70;;;;;;;;;;10098504;28;20130;-71
2022/08/24 15:29:46;;;;;;;9.52;8.68;;;;;;;;;;10111268;28;20134;-70
2022/08/24 15:34:47;;;;;;;8.00;7.40;;;;;;;;;;10075723;28;20130;-70
2022/08/24 15:39:43;;;;;;;8.25;7.65;;;;;;;;;;10108544;28;20075;-71
2022/08/24 15:44:41;;;;;;;8.00;7.30;;;;;;;;;;10112443;28;20129;-71
2022/08/24 15:50:10;;;;;;;8.23;7.53;;;;;;;;;;10105872;28;20067;-70
2022/08/24 15:55:12;;;;;;;9.82;8.93;;;;;;;;;;10086680;28;20058;-70
2022/08/24 16:00:09;;;;;;;7.65;7.13;;;;;;;;;;10098359;28;20139;-70
2022/08/24 16:05:14;;;;;;;7.05;6.35;;;;;;;;;;10107859;28;20051;-70
2022/08/24 16:10:11;;;;;;;7.18;6.43;;;;;;;;;;10107234;28;20082;-71
2022/08/24 16:15:11;;;;;;;6.70;6.13;;;;;;;;;;10108559;28;20230;-71
2022/08/24 16:20:12;;;;;;;7.30;6.70;;;;;;;;;;10110379;28;20051;-71
2022/08/24 16:25:13;;;;;;;6.60;6.07;;;;;;;;;;10111821;28;20055;-71
2022/08/24 16:30:20;;;;;;;6.78;6.18;;;;;;;;;;10106655;28;20054;-70
2022/08/24 16:35:19;;;;;;;7.60;7.00;;;;;;;;;;10101869;28;20109;-71
2022/08/24 16:40:15;;;;;;;8.27;7.13;;;;;;;;;;10107120;28;20547;-70
2022/08/24 16:45:16;;;;;;;9.55;7.45;;;;;;;;;;10102465;28;20050;-71
2022/08/24 16:50:16;;;;;;;8.30;6.73;;;;;;;;;;10106179;28;20497;-71
2022/08/24 16:55:12;;;;;;;12.60;11.30;;;;;;;;;;10103453;28;20105;-71
2022/08/24 17:00:14;;;;;;;7.32;6.63;;;;;;;;;;10104457;28;20039;-71
2022/08/24 17:05:10;;;;;;;7.07;6.38;;;;;;;;;;10102154;28;20098;-71
2022/08/24 17:10:08;;;;;;;6.75;6.15;;;;;;;;;;10090720;28;20557;-72
2022/08/24 17:15:05;;;;;;;10.23;7.05;;;;;;;;;;10105162;28;20051;-71
2022/08/24 17:20:04;;;;;;;10.73;6.45;;;;;;;;;;10104460;28;20573;-70
2022/08/24 17:25:01;;;;;;;7.10;6.40;;;;;;;;;;10104827;28;20548;-71
2022/08/24 17:30:01;;;;;;;7.47;6.20;;;;;;;;;;10105528;28;20093;-71
2022/08/24 17:34:57;;;;;;;7.35;5.93;;;;;;;;;;10104515;28;20059;-72
2022/08/24 17:39:54;;;;;;;7.35;5.90;;;;;;;;;;10098845;28;20062;-72
2022/08/24 17:44:52;;;;;;;6.30;5.78;;;;;;;;;;10105309;28;20658;-72
2022/08/24 17:49:48;;;;;;;5.82;5.35;;;;;;;;;;10101665;28;20089;-70
2022/08/24 17:54:45;;;;;;;6.32;5.72;;;;;;;;;;10109902;28;20047;-72
2022/08/24 17:59:41;;;;;;;6.45;5.80;;;;;;;;;;10110576;28;20074;-71
2022/08/24 18:04:38;;;;;;;6.15;5.55;;;;;;;;;;10110083;28;20067;-71
2022/08/24 18:09:36;;;;;;;6.95;6.25;;;;;;;;;;10105985;28;20505;-71
2022/08/24 18:14:33;;;;;;;6.18;5.55;;;;;;;;;;10113596;28;20085;-71
2022/08/24 18:19:33;;;;;;;6.38;5.78;;;;;;;;;;10109373;28;20505;-71
2022/08/24 18:24:33;;;;;;;6.43;5.68;;;;;;;;;;10110020;28;20094;-71
2022/08/24 18:29:29;;;;;;;8.13;6.13;;;;;;;;;;10110740;28;20074;-71
2022/08/24 18:34:30;;;;;;;13.00;6.18;;;;;;;;;;10109696;28;20074;-71
2022/08/24 18:39:27;;;;;;;7.10;6.40;;;;;;;;;;10110848;28;20043;-71
2022/08/24 18:44:24;;;;;;;9.57;6.78;;;;;;;;;;10107537;28;20070;-71
2022/08/24 18:49:26;;;;;;;9.32;6.85;;;;;;;;;;10105483;28;20058;-71
2022/08/24 18:54:24;;;;;;;6.93;6.22;;;;;;;;;;10097353;28;20043;-71
2022/08/24 18:59:20;;;;;;;7.82;6.82;;;;;;;;;;10107550;28;20131;-71
2022/08/24 19:04:16;;;;;;;10.40;6.50;;;;;;;;;;10110452;28;20047;-71
2022/08/24 19:09:17;;;;;;;8.35;6.75;;;;;;;;;;10096344;28;20054;-70
2022/08/24 19:14:13;;;;;;;9.73;6.22;;;;;;;;;;10108767;28;20094;-70
2022/08/24 19:19:11;;;;;;;7.75;6.13;;;;;;;;;;10107841;28;20077;-70
2022/08/24 19:24:07;;;;;;;12.35;6.00;;;;;;;;;;10120024;28;20051;-70
2022/08/24 19:29:05;;;;;;;7.60;6.20;;;;;;;;;;10114613;28;20051;-70
2022/08/24 19:34:01;;;;;;;6.85;5.30;;;;;;;;;;10106130;28;20402;-69
2022/08/24 19:38:58;;;;;;;6.50;5.90;;;;;;;;;;10106071;28;20528;-70
2022/08/24 19:49:23;;;;;;;10.02;6.18;;;;;;;;;;10100895;28;20501;-70
2022/08/24 19:54:19;;;;;;;8.82;6.50;;;;;;;;;;10104667;28;20145;-70
2022/08/24 19:59:23;;;;;;;10.35;5.53;;;;;;;;;;10095475;28;20046;-73
2022/08/24 20:04:19;;;;;;;12.38;5.60;;;;;;;;;;10108048;28;20047;-70
2022/08/24 20:09:15;;;;;;;10.50;5.30;;;;;;;;;;10101159;28;20912;-70
2022/08/24 20:14:18;;;;;;;6.20;5.20;;;;;;;;;;10102889;28;20051;-70
2022/08/24 20:19:14;;;;;;;7.07;4.95;;;;;;;;;;10097686;28;20047;-70
2022/08/24 20:24:11;;;;;;;5.47;4.82;;;;;;;;;;10098959;28;20039;-69
2022/08/24 20:29:08;;;;;;;7.50;5.22;;;;;;;;;;10097431;28;20081;-68
2022/08/24 20:34:05;;;;;;;5.95;4.75;;;;;;;;;;10103153;28;20695;-68
2022/08/24 20:39:02;;;;;;;7.40;5.00;;;;;;;;;;10098166;28;20455;-68
2022/08/24 20:44:00;;;;;;;6.97;4.80;;;;;;;;;;10098908;28;20051;-68
2022/08/24 20:48:56;;;;;;;5.32;4.82;;;;;;;;;;10101220;28;20209;-68
2022/08/24 20:53:54;;;;;;;7.32;4.85;;;;;;;;;;10105626;28;20051;-68
2022/08/24 20:58:50;;;;;;;7.60;4.57;;;;;;;;;;10087713;28;20042;-67
2022/08/24 21:03:46;;;;;;;7.20;4.47;;;;;;;;;;10101025;28;20078;-68
2022/08/24 21:08:44;;;;;;;8.13;4.28;;;;;;;;;;10104524;28;20050;-67
2022/08/24 21:13:41;;;;;;;11.73;4.38;;;;;;;;;;10093535;28;20883;-68
2022/08/24 21:18:37;;;;;;;6.35;4.10;;;;;;;;;;10100128;28;20058;-68
2022/08/24 21:23:33;;;;;;;6.22;4.35;;;;;;;;;;10097994;28;20137;-67
2022/08/24 21:28:30;;;;;;;5.95;4.60;;;;;;;;;;10108811;28;20043;-67
2022/08/24 21:38:42;;;;;;;6.18;4.72;;;;;;;;;;10107152;28;20062;-69
2022/08/24 21:43:40;;;;;;;5.63;4.10;;;;;;;;;;10113264;28;20508;-67
2022/08/24 21:48:38;;;;;;;6.07;3.65;;;;;;;;;;10113043;28;20125;-69
2022/08/24 21:53:35;;;;;;;6.47;3.75;;;;;;;;;;10113388;28;20046;-70
2022/08/24 21:58:32;;;;;;;8.68;3.83;;;;;;;;;;10101566;28;20094;-67
2022/08/24 22:03:31;;;;;;;9.95;3.88;;;;;;;;;;10104748;28;20050;-67
2022/08/24 22:08:36;;;;;;;4.63;3.30;;;;;;;;;;10110100;28;20088;-69
2022/08/24 22:13:32;;;;;;;10.52;4.85;;;;;;;;;;10104369;28;20584;-69
2022/08/24 22:18:29;;;;;;;6.07;3.40;;;;;;;;;;10110511;28;20075;-69
2022/08/24 22:23:26;;;;;;;5.95;4.10;;;;;;;;;;10106349;28;20131;-68
2022/08/24 22:28:23;;;;;;;6.82;3.95;;;;;;;;;;10112501;28;20049;-68
2022/08/24 22:33:19;;;;;;;7.13;3.67;;;;;;;;;;10113920;28;20497;-68
2022/08/24 22:38:16;;;;;;;5.60;3.88;;;;;;;;;;10098610;28;20043;-68
2022/08/24 22:43:12;;;;;;;9.35;4.28;;;;;;;;;;10110540;28;20134;-70
2022/08/24 22:48:08;;;;;;;7.75;3.90;;;;;;;;;;10113941;28;20081;-67
2022/08/24 22:53:05;;;;;;;6.45;3.85;;;;;;;;;;10105379;28;20051;-68
2022/08/24 22:58:01;;;;;;;5.55;3.72;;;;;;;;;;10098548;28;20047;-68
2022/08/24 23:02:58;;;;;;;6.85;4.35;;;;;;;;;;10106707;28;20458;-68
2022/08/24 23:07:54;;;;;;;5.18;3.90;;;;;;;;;;10109965;28;20416;-68
2022/08/24 23:12:50;;;;;;;8.15;4.43;;;;;;;;;;10103049;28;20046;-67
2022/08/24 23:17:46;;;;;;;7.20;3.80;;;;;;;;;;10101967;28;20500;-67
2022/08/24 23:22:43;;;;;;;8.52;4.30;;;;;;;;;;10112996;28;20552;-68
2022/08/24 23:27:39;;;;;;;8.25;4.07;;;;;;;;;;10105501;28;20131;-68
2022/08/24 23:32:36;;;;;;;6.38;4.15;;;;;;;;;;10108761;28;20133;-68
2022/08/24 23:37:32;;;;;;;7.95;3.90;;;;;;;;;;10107542;28;20159;-68
2022/08/24 23:42:28;;;;;;;7.28;4.00;;;;;;;;;;10107691;28;20504;-68
2022/08/24 23:47:25;;;;;;;7.95;4.50;;;;;;;;;;10109350;28;20051;-69
2022/08/24 23:52:21;;;;;;;5.20;3.78;;;;;;;;;;10105646;28;20070;-68
2022/08/24 23:57:27;;;;;;;6.82;3.80;;;;;;;;;;10099287;28;20101;-68
